Roscoe, Nebraska
Current Conditions -  °F | °C
As of 4:55 AM on Monday 22 Dec 2014 (Local Time) from KOGA Reporting Station
Broken Clouds Broken Clouds  
Wind Chill: 27°   Ceiling: 5000
Heat Index: 36°   Visibility: 10mi
Dew Point: 30°   Wind: 14mph
Humidity: 80%   Direction: 330°NNW
Pressure: 29.62"   Gusts: NA
Location:  41.0603°N, 101.629°W
Report Text: KOGA 221155Z AUTO 33012KT 10SM SCT034 SCT042 BKN050 02/M01 A2962 RMK AO2 T00201011 10042 20020
Loading
Personal Weather Stations






























Interactive Weather Map New forecast layout! Learn more

10-Day Weather Forecast

Advertisements
Track Severe Weather on mobile